Terminal Aerodrome Forecast
Issued by NWS Shreveport, LA

Home | Current Version | Previous Version | Text Only | Print | Product List | Glossary On
Versions: 1 2 3 4 5 6 7 8 9 10 11 12
608
FTUS44 KSHV 010049 RRA
TAFELD
TAF
KELD 010049Z 0101/0124 VRB03KT P6SM FEW070 FEW250
     FM010900 VRB03KT P6SM SCT070 SCT250
     FM011100 VRB03KT P6SM BKN050 BKN150
     FM011800 26003KT P6SM BKN050 OVC140=

USA.gov is the U.S. government's official web portal to all federal, state and local government web resources and services.